Weather History for KMSV - March, 2013

Change the Weather History Date:

Saturday, March 23, 2013

  Actual Average Record
Temperature  
Mean Temperature 30 °F -  
Max Temperature 35 °F 42 °F 69 °F (2012)
Min Temperature 26 °F 26 °F 6 °F (2004)
Degree Days  
Heating Degree Days 34    
Moisture  
Dew Point 17 °F    
Average Humidity 59    
Maximum Humidity 69    
Minimum Humidity 44    
Precipitation  
Precipitation 0.00 in - - ()
Sea Level Pressure  
Sea Level Pressure 29.82 in    
Wind  
Wind Speed 14 mph (WNW)    
Max Wind Speed 23 mph    
Max Gust Speed 33 mph    
Visibility 10 miles    
Events      
Averages and records for this station are not official NWS values.
T = Trace of Precipitation, MM = Missing Value Source: NWS Daily Summary

Daily Weather History Graph

Daily Weather History Graph

Search for Another Location

Airport or City:

Trip Planner

Search our weather history database for the weather conditions in past years. The results will help you decide how hot, cold, wet, or windy it might be!

Date:

Astronomy

Mar. 23, 2013 Rise Set
Actual Time 6:57 AM EDT 7:14 PM EDT
Civil Twilight 6:29 AM EDT 7:42 PM EDT
Nautical Twilight 5:56 AM EDT 8:15 PM EDT
Astronomical Twilight 5:23 AM EDT 8:48 PM EDT
Moon 3:36 PM EDT (3/23) 4:34 AM EDT (3/23)
Length of Visible Light 13h 13m
Length of Day
12h 17m
Waxing Gibbous, 85% of the Moon is Illuminated
Mar 23
Waxing Gibbous
Mar 27
Full
Apr 3
Last Quarter
Apr 10
New
Apr 18
First Quarter

Hourly Weather History & Observations

Time (EDT) Temp. Windchill Dew Point Humidity Pressure Visibility Wind Dir Wind Speed Gust Speed Precip Events Conditions
12:15 AM 28.4 °F 17.5 °F 17.6 °F 64% 29.82 in 10.0 mi West 13.8 mph 19.6 mph N/A   Overcast
12:35 AM 28.4 °F 18.0 °F 17.6 °F 64% 29.82 in 10.0 mi WNW 12.7 mph 18.4 mph N/A   Overcast
12:55 AM 28.4 °F 18.0 °F 17.6 °F 64% 29.81 in 10.0 mi West 12.7 mph 16.1 mph N/A   Overcast
1:15 AM 28.4 °F 17.5 °F 17.6 °F 64% 29.80 in 10.0 mi West 13.8 mph 18.4 mph N/A   Overcast
1:35 AM 28.4 °F 17.5 °F 17.6 °F 64% 29.80 in 10.0 mi West 13.8 mph 20.7 mph N/A   Overcast
1:55 AM 26.6 °F 16.8 °F 15.8 °F 64% 29.81 in 10.0 mi WNW 10.4 mph 18.4 mph N/A   Overcast
2:15 AM 26.6 °F 16.2 °F 17.6 °F 69% 29.81 in 10.0 mi West 11.5 mph - N/A   Overcast
2:35 AM 26.6 °F 16.2 °F 17.6 °F 69% 29.81 in 10.0 mi West 11.5 mph 17.3 mph N/A   Overcast
2:55 AM 26.6 °F 17.5 °F 15.8 °F 64% 29.80 in 10.0 mi West 9.2 mph - N/A   Overcast
3:15 AM 26.6 °F 17.5 °F 17.6 °F 69% 29.80 in 10.0 mi WNW 9.2 mph 17.3 mph N/A   Overcast
3:35 AM 26.6 °F 16.8 °F 17.6 °F 69% 29.80 in 10.0 mi West 10.4 mph 18.4 mph N/A   Overcast
3:55 AM 26.6 °F 17.5 °F 17.6 °F 69% 29.79 in 10.0 mi West 9.2 mph 17.3 mph N/A   Overcast
4:15 AM 26.6 °F 15.2 °F 17.6 °F 69% 29.79 in 10.0 mi WNW 13.8 mph 20.7 mph N/A   Overcast
4:35 AM 26.6 °F 16.2 °F 17.6 °F 69% 29.79 in 10.0 mi West 11.5 mph 18.4 mph N/A   Overcast
4:55 AM 26.6 °F 17.5 °F 17.6 °F 69% 29.79 in 10.0 mi WNW 9.2 mph 19.6 mph N/A   Overcast
5:15 AM 26.6 °F 16.8 °F 17.6 °F 69% 29.79 in 10.0 mi West 10.4 mph - N/A   Overcast
5:35 AM 26.6 °F 16.2 °F 17.6 °F 69% 29.79 in 10.0 mi West 11.5 mph 18.4 mph N/A   Overcast
5:55 AM 26.6 °F 15.2 °F 17.6 °F 69% 29.80 in 10.0 mi WNW 13.8 mph 19.6 mph N/A   Overcast
6:15 AM 26.6 °F 16.2 °F 17.6 °F 69% 29.80 in 10.0 mi West 11.5 mph 21.9 mph N/A   Overcast
6:35 AM 26.6 °F 16.2 °F 17.6 °F 69% 29.80 in 10.0 mi West 11.5 mph 17.3 mph N/A   Overcast
6:55 AM 26.6 °F 14.7 °F 17.6 °F 69% 29.81 in 10.0 mi West 15.0 mph 19.6 mph N/A   Overcast
7:15 AM 26.6 °F 16.2 °F 17.6 °F 69% 29.81 in 10.0 mi WNW 11.5 mph 18.4 mph N/A   Overcast
7:35 AM 26.6 °F 14.7 °F 17.6 °F 69% 29.81 in 10.0 mi West 15.0 mph 19.6 mph N/A   Overcast
7:55 AM 26.6 °F 14.3 °F 17.6 °F 69% 29.80 in 10.0 mi West 16.1 mph 21.9 mph N/A   Mostly Cloudy
8:15 AM 28.4 °F 19.1 °F 17.6 °F 64% 29.80 in 10.0 mi West 10.4 mph 20.7 mph N/A   Mostly Cloudy
8:35 AM 28.4 °F 17.0 °F 17.6 °F 64% 29.80 in 10.0 mi West 15.0 mph 20.7 mph N/A   Overcast
8:55 AM 28.4 °F 17.5 °F 17.6 °F 64% 29.80 in 10.0 mi WNW 13.8 mph 20.7 mph N/A   Overcast
9:15 AM 28.4 °F 17.5 °F 17.6 °F 64% 29.80 in 10.0 mi WNW 13.8 mph 24.2 mph N/A   Overcast
9:35 AM 28.4 °F 15.1 °F 17.6 °F 64% 29.79 in 10.0 mi West 20.7 mph 28.8 mph N/A   Overcast
9:55 AM 30.2 °F 17.8 °F 17.6 °F 60% 29.79 in 10.0 mi WNW 19.6 mph 24.2 mph N/A   Overcast
10:15 AM 30.2 °F 18.5 °F 19.4 °F 64% 29.80 in 10.0 mi West 17.3 mph 26.5 mph N/A   Overcast
10:35 AM 30.2 °F 18.5 °F 19.4 °F 64% 29.81 in 10.0 mi WNW 17.3 mph 25.3 mph N/A   Overcast
10:55 AM 30.2 °F 17.8 °F 19.4 °F 64% 29.81 in 10.0 mi WNW 19.6 mph 31.1 mph N/A   Overcast
11:15 AM 32.0 °F 20.1 °F 17.6 °F 55% 29.81 in 10.0 mi WNW 19.6 mph 28.8 mph N/A   Overcast
11:35 AM 32.0 °F 22.1 °F 17.6 °F 55% 29.82 in 10.0 mi WNW 13.8 mph 24.2 mph N/A   Overcast
11:55 AM 32.0 °F 22.1 °F 17.6 °F 55% 29.82 in 10.0 mi WNW 13.8 mph 25.3 mph N/A   Overcast
12:15 PM 32.0 °F 23.0 °F 17.6 °F 55% 29.82 in 10.0 mi WNW 11.5 mph 27.6 mph N/A   Overcast
12:35 PM 33.8 °F 22.2 °F 19.4 °F 56% 29.82 in 10.0 mi WNW 20.7 mph 31.1 mph N/A   Overcast
12:55 PM 35.6 °F 24.5 °F 17.6 °F 48% 29.82 in 10.0 mi WNW 20.7 mph 26.5 mph N/A   Mostly Cloudy
1:15 PM 33.8 °F 22.5 °F 17.6 °F 52% 29.82 in 10.0 mi WNW 19.6 mph 26.5 mph N/A   Overcast
1:35 PM 35.6 °F 24.5 °F 17.6 °F 48% 29.82 in 10.0 mi West 20.7 mph 31.1 mph N/A   Overcast
1:55 PM 35.6 °F 24.0 °F 17.6 °F 48% 29.82 in 10.0 mi NW 23.0 mph 28.8 mph N/A   Overcast
2:15 PM 33.8 °F 23.9 °F 17.6 °F 52% 29.82 in 10.0 mi WNW 15.0 mph 26.5 mph N/A   Overcast
2:35 PM 33.8 °F 22.2 °F 17.6 °F 52% 29.81 in 10.0 mi NW 20.7 mph 28.8 mph N/A   Overcast
2:55 PM 33.8 °F 22.8 °F 15.8 °F 48% 29.81 in 10.0 mi NW 18.4 mph 25.3 mph N/A   Overcast
3:15 PM 35.6 °F 25.2 °F 17.6 °F 48% 29.81 in 10.0 mi WNW 18.4 mph 28.8 mph N/A   Overcast
3:35 PM 35.6 °F 26.6 °F 15.8 °F 44% 29.80 in 10.0 mi West 13.8 mph 21.9 mph N/A   Overcast
3:55 PM 35.6 °F 24.2 °F 15.8 °F 44% 29.80 in 10.0 mi NW 21.9 mph 33.4 mph N/A   Mostly Cloudy
4:15 PM 35.6 °F 25.5 °F 15.8 °F 44% 29.80 in 10.0 mi NW 17.3 mph 29.9 mph N/A   Mostly Cloudy
4:35 PM 35.6 °F 25.9 °F 17.6 °F 48% 29.80 in 10.0 mi NW 16.1 mph 25.3 mph N/A   Overcast
4:55 PM 35.6 °F 26.6 °F 15.8 °F 44% 29.81 in 10.0 mi NW 13.8 mph 25.3 mph N/A   Overcast
5:15 PM 33.8 °F 22.5 °F 15.8 °F 48% 29.81 in 10.0 mi WNW 19.6 mph 27.6 mph N/A   Overcast
5:35 PM 33.8 °F 25.3 °F 15.8 °F 48% 29.82 in 10.0 mi West 11.5 mph 24.2 mph N/A   Overcast
5:55 PM 33.8 °F 22.8 °F 15.8 °F 48% 29.82 in 10.0 mi NW 18.4 mph 26.5 mph N/A   Overcast
6:15 PM 33.8 °F 23.9 °F 15.8 °F 48% 29.83 in 10.0 mi WNW 15.0 mph 23.0 mph N/A   Overcast
6:35 PM 33.8 °F 22.5 °F 15.8 °F 48% 29.83 in 10.0 mi WNW 19.6 mph 29.9 mph N/A   Scattered Clouds
6:55 PM 32.0 °F 21.2 °F 15.8 °F 51% 29.84 in 10.0 mi NW 16.1 mph 27.6 mph N/A   Clear
7:15 PM 30.2 °F 20.2 °F 15.8 °F 55% 29.85 in 10.0 mi WNW 12.7 mph 23.0 mph N/A   Partly Cloudy
7:35 PM 30.2 °F 20.2 °F 15.8 °F 55% 29.86 in 10.0 mi WNW 12.7 mph 23.0 mph N/A   Mostly Cloudy
7:55 PM 30.2 °F 19.8 °F 17.6 °F 60% 29.86 in 10.0 mi NW 13.8 mph 27.6 mph N/A   Mostly Cloudy
8:15 PM 30.2 °F 17.8 °F 15.8 °F 55% 29.87 in 10.0 mi NW 19.6 mph 25.3 mph N/A   Overcast
8:35 PM 30.2 °F 20.8 °F 15.8 °F 55% 29.88 in 10.0 mi NW 11.5 mph 16.1 mph N/A   Overcast
8:55 PM 30.2 °F 20.2 °F 15.8 °F 55% 29.88 in 10.0 mi NW 12.7 mph 18.4 mph N/A   Overcast
9:15 PM 30.2 °F 21.3 °F 15.8 °F 55% 29.89 in 10.0 mi WNW 10.4 mph - N/A   Overcast
9:35 PM 30.2 °F 18.5 °F 15.8 °F 55% 29.89 in 10.0 mi WNW 17.3 mph 24.2 mph N/A   Overcast
9:55 PM 28.4 °F 18.5 °F 15.8 °F 59% 29.88 in 10.0 mi WNW 11.5 mph 18.4 mph N/A   Scattered Clouds
10:15 PM 28.4 °F 18.0 °F 15.8 °F 59% 29.88 in 10.0 mi NW 12.7 mph - N/A   Scattered Clouds
10:35 PM 28.4 °F 16.2 °F 15.8 °F 59% 29.88 in 10.0 mi NW 17.3 mph 24.2 mph N/A   Overcast
10:55 PM 28.4 °F 17.5 °F 15.8 °F 59% 29.88 in 10.0 mi WNW 13.8 mph 25.3 mph N/A   Mostly Cloudy
11:15 PM 28.4 °F 17.5 °F 15.8 °F 59% 29.88 in 10.0 mi WNW 13.8 mph 19.6 mph N/A   Clear
11:35 PM 28.4 °F 19.7 °F 15.8 °F 59% 29.89 in 10.0 mi WNW 9.2 mph - N/A   Clear
11:55 PM 28.4 °F 21.2 °F 15.8 °F 59% 29.89 in 10.0 mi West 6.9 mph - N/A   Scattered Clouds